createdAt,value
2019-05-25T00:00:30.789Z,60.32
2019-05-25T00:01:36.315Z,60.22
2019-05-25T00:02:41.463Z,60.20
2019-05-25T00:03:45.869Z,59.90
2019-05-25T00:04:50.961Z,60.06
2019-05-25T00:05:55.380Z,60.35
2019-05-25T00:07:03.320Z,60.69
2019-05-25T00:08:07.811Z,60.91
2019-05-25T00:09:12.808Z,61.33
2019-05-25T00:10:19.004Z,61.11
2019-05-25T00:11:24.080Z,61.68
2019-05-25T00:12:28.574Z,61.34
2019-05-25T00:13:33.573Z,61.82
2019-05-25T00:14:38.014Z,61.88
2019-05-25T00:15:43.165Z,62.59
2019-05-25T00:16:47.566Z,62.54
2019-05-25T00:17:52.633Z,62.60
2019-05-25T00:18:57.048Z,63.04
2019-05-25T00:20:02.093Z,63.46
2019-05-25T00:21:06.566Z,63.54
2019-05-25T00:22:11.572Z,63.46
2019-05-25T00:23:16.055Z,63.20
2019-05-25T00:24:21.127Z,63.65
2019-05-25T00:25:25.628Z,63.62
2019-05-25T00:26:30.941Z,63.85
2019-05-25T00:27:35.423Z,64.39
2019-05-25T00:28:40.492Z,63.68
2019-05-25T00:29:45.419Z,63.45
2019-05-25T00:30:50.484Z,63.01
2019-05-25T00:31:55.049Z,64.01
2019-05-25T00:33:00.389Z,63.39
2019-05-25T00:34:05.172Z,63.07
2019-05-25T00:35:10.398Z,63.35
2019-05-25T00:36:14.868Z,63.42
2019-05-25T00:37:20.012Z,63.04
2019-05-25T00:38:24.507Z,63.36
2019-05-25T00:39:29.577Z,63.62
2019-05-25T00:40:34.087Z,63.09
2019-05-25T00:41:39.083Z,63.39
2019-05-25T00:42:43.866Z,63.02
2019-05-25T00:43:48.876Z,62.90
2019-05-25T00:44:53.316Z,62.70
2019-05-25T00:45:58.409Z,62.70
2019-05-25T00:47:02.889Z,62.35
2019-05-25T00:48:08.174Z,62.76
2019-05-25T00:49:12.595Z,62.75
2019-05-25T00:50:17.751Z,62.78
2019-05-25T00:51:22.164Z,63.24
2019-05-25T00:52:27.165Z,63.14
2019-05-25T00:53:31.588Z,63.36
2019-05-25T00:54:36.583Z,63.17
2019-05-25T00:55:41.016Z,62.92
2019-05-25T00:56:46.016Z,63.04
2019-05-25T00:57:50.434Z,63.02
2019-05-25T00:58:55.499Z,63.19
2019-05-25T00:59:59.930Z,63.41
2019-05-25T01:01:05.283Z,62.77
2019-05-25T01:02:09.718Z,62.87
2019-05-25T01:03:15.037Z,62.96
2019-05-25T01:04:19.519Z,63.05
2019-05-25T01:05:24.980Z,63.33
2019-05-25T01:06:29.559Z,63.43
2019-05-25T01:07:34.554Z,63.77
2019-05-25T01:08:38.989Z,64.00
2019-05-25T01:09:44.092Z,64.24
2019-05-25T01:10:48.803Z,64.53
2019-05-25T01:11:53.800Z,64.70
2019-05-25T01:12:58.221Z,65.62
2019-05-25T01:14:03.289Z,65.53
2019-05-25T01:15:08.457Z,65.43
2019-05-25T01:16:13.467Z,65.57
2019-05-25T01:17:18.204Z,65.77
2019-05-25T01:18:23.344Z,66.37
2019-05-25T01:19:27.759Z,66.77
2019-05-25T01:20:32.928Z,67.20
2019-05-25T01:21:37.722Z,67.04
2019-05-25T01:22:42.726Z,67.71
2019-05-25T01:23:47.144Z,67.74
2019-05-25T01:24:52.156Z,68.35
2019-05-25T01:25:56.593Z,68.15
2019-05-25T01:27:01.994Z,68.23
2019-05-25T01:28:06.492Z,68.79
2019-05-25T01:29:11.525Z,68.79
2019-05-25T01:30:16.484Z,69.24
2019-05-25T01:31:21.711Z,69.61
2019-05-25T01:32:26.129Z,69.63
2019-05-25T01:33:31.240Z,69.70
2019-05-25T01:34:35.637Z,69.86
2019-05-25T01:35:40.973Z,69.94
2019-05-25T01:36:45.384Z,70.04
2019-05-25T01:37:50.502Z,70.30
2019-05-25T01:38:56.059Z,70.61
2019-05-25T01:40:01.076Z,70.72
2019-05-25T01:41:05.731Z,71.07
2019-05-25T01:42:10.808Z,71.17
2019-05-25T01:43:15.376Z,71.28
2019-05-25T01:44:20.652Z,71.50
2019-05-25T01:45:25.189Z,71.90
2019-05-25T01:46:30.283Z,72.40
2019-05-25T01:47:34.768Z,72.21
2019-05-25T01:48:39.770Z,72.54
2019-05-25T01:49:44.185Z,72.70
2019-05-25T01:50:49.560Z,73.10
2019-05-25T01:51:53.980Z,73.36
2019-05-25T01:52:58.991Z,73.35
2019-05-25T01:54:03.483Z,73.71
2019-05-25T01:55:08.625Z,74.37
2019-05-25T01:56:13.461Z,74.19
2019-05-25T01:57:18.477Z,74.77
2019-05-25T01:58:23.196Z,75.37
2019-05-25T01:59:28.266Z,75.47
2019-05-25T02:00:32.758Z,76.02
2019-05-25T02:01:37.856Z,76.14
2019-05-25T02:02:42.355Z,76.13
2019-05-25T02:03:47.450Z,76.33
2019-05-25T02:04:51.949Z,76.48
2019-05-25T02:05:56.972Z,76.22
2019-05-25T02:07:01.393Z,76.25
2019-05-25T02:08:06.538Z,76.70
2019-05-25T02:09:11.101Z,76.96
2019-05-25T02:10:16.450Z,77.13
2019-05-25T02:11:20.930Z,77.18
2019-05-25T02:12:25.899Z,77.41
2019-05-25T02:13:30.318Z,77.54
2019-05-25T02:14:35.387Z,77.75
2019-05-25T02:15:39.872Z,78.24
2019-05-25T02:16:44.901Z,78.33
2019-05-25T02:17:49.325Z,78.55
2019-05-25T02:18:54.401Z,78.67
2019-05-25T02:19:58.824Z,78.83
2019-05-25T02:21:03.893Z,78.98
2019-05-25T02:22:08.403Z,79.20
2019-05-25T02:23:13.401Z,79.52
2019-05-25T02:24:17.836Z,79.94
2019-05-25T02:25:22.977Z,80.04
2019-05-25T02:26:27.421Z,80.22
2019-05-25T02:27:32.454Z,80.22
2019-05-25T02:28:36.876Z,80.36
2019-05-25T02:29:41.886Z,80.51
2019-05-25T02:30:47.591Z,80.73
2019-05-25T02:31:53.790Z,80.65
2019-05-25T02:32:58.393Z,80.66
2019-05-25T02:34:03.440Z,80.74
2019-05-25T02:35:08.205Z,80.91
2019-05-25T02:36:13.219Z,81.38
2019-05-25T02:37:17.650Z,81.76
2019-05-25T02:38:22.555Z,82.08
2019-05-25T02:39:26.994Z,82.22
2019-05-25T02:40:32.074Z,82.48
2019-05-25T02:41:36.845Z,82.56
2019-05-25T02:42:41.884Z,82.68
2019-05-25T02:43:46.337Z,82.63
2019-05-25T02:44:51.343Z,82.88
2019-05-25T02:45:55.834Z,83.01
2019-05-25T02:47:01.220Z,82.89
2019-05-25T02:48:05.714Z,82.92
2019-05-25T02:49:10.714Z,83.09
2019-05-25T02:50:15.473Z,82.96
2019-05-25T02:51:20.833Z,83.00
2019-05-25T02:52:25.272Z,83.00
2019-05-25T02:53:30.272Z,83.00
2019-05-25T02:54:34.910Z,82.81
2019-05-25T02:55:40.312Z,82.42
2019-05-25T02:56:44.749Z,82.08
2019-05-25T02:57:49.754Z,81.67
2019-05-25T02:58:54.547Z,81.55
2019-05-25T02:59:59.542Z,81.42
2019-05-25T03:01:04.409Z,81.07
2019-05-25T03:02:09.503Z,81.21
2019-05-25T03:03:14.174Z,81.18
2019-05-25T03:04:19.326Z,81.11
2019-05-25T03:05:23.961Z,81.18
2019-05-25T03:06:29.806Z,81.24
2019-05-25T03:07:35.500Z,81.07
2019-05-25T03:08:42.018Z,80.69
2019-05-25T03:09:47.998Z,80.70
2019-05-25T03:10:53.800Z,80.63
2019-05-25T03:11:59.977Z,80.35
2019-05-25T03:13:05.615Z,80.39
2019-05-25T03:14:10.177Z,80.16
2019-05-25T03:15:15.895Z,79.65
2019-05-25T03:16:20.413Z,79.66
2019-05-25T03:17:25.435Z,79.61
2019-05-25T03:18:29.850Z,79.69
2019-05-25T03:19:35.006Z,79.56
2019-05-25T03:20:39.483Z,79.29
2019-05-25T03:21:44.523Z,79.65
2019-05-25T03:22:48.960Z,79.36
2019-05-25T03:23:53.979Z,79.11
2019-05-25T03:24:58.398Z,78.80
2019-05-25T03:26:03.396Z,78.77
2019-05-25T03:27:07.825Z,78.72
2019-05-25T03:28:12.896Z,78.64
2019-05-25T03:29:17.312Z,78.49
2019-05-25T03:30:31.313Z,78.75
2019-05-25T03:31:35.735Z,78.85
2019-05-25T03:32:40.770Z,79.01
2019-05-25T03:33:45.174Z,78.92
2019-05-25T03:34:50.183Z,78.85
2019-05-25T03:35:54.998Z,78.88
2019-05-25T03:37:00.072Z,78.87
2019-05-25T03:38:04.670Z,79.19
2019-05-25T03:39:09.789Z,78.75
2019-05-25T03:40:14.492Z,78.57
2019-05-25T03:41:19.560Z,78.51
2019-05-25T03:42:24.455Z,78.54
2019-05-25T03:43:29.595Z,78.37
2019-05-25T03:44:34.012Z,78.55
2019-05-25T03:45:39.021Z,78.50
2019-05-25T03:46:43.525Z,78.47
2019-05-25T03:47:48.679Z,78.28
2019-05-25T03:48:53.098Z,78.26
2019-05-25T03:49:58.378Z,78.59
2019-05-25T03:51:02.793Z,78.79
2019-05-25T03:52:08.121Z,78.30
2019-05-25T03:53:12.638Z,78.13
2019-05-25T03:54:17.633Z,77.88
2019-05-25T03:55:22.121Z,78.05
2019-05-25T03:56:27.496Z,78.13
2019-05-25T03:57:31.927Z,78.02
2019-05-25T03:58:36.931Z,77.99
2019-05-25T03:59:41.819Z,78.05
2019-05-25T04:00:48.217Z,78.24
2019-05-25T04:01:52.635Z,78.14
2019-05-25T04:02:57.704Z,78.19
2019-05-25T04:04:02.116Z,78.11
2019-05-25T04:05:07.873Z,78.36
2019-05-25T04:06:12.284Z,78.10
2019-05-25T04:07:17.285Z,78.04
2019-05-25T04:08:22.153Z,78.04
2019-05-25T04:09:27.157Z,77.88
2019-05-25T04:10:31.642Z,77.74
2019-05-25T04:11:36.916Z,77.90
2019-05-25T04:12:41.423Z,78.12
2019-05-25T04:13:47.388Z,77.70
2019-05-25T04:14:51.801Z,77.81
2019-05-25T04:15:57.116Z,77.78
2019-05-25T04:17:02.019Z,77.45
2019-05-25T04:18:07.116Z,78.13
2019-05-25T04:19:11.530Z,77.98
2019-05-25T04:20:16.963Z,77.94
2019-05-25T04:21:21.386Z,77.98
2019-05-25T04:22:26.389Z,77.72
2019-05-25T04:23:30.862Z,77.59
2019-05-25T04:24:35.833Z,77.90
2019-05-25T04:25:40.244Z,77.32
2019-05-25T04:26:45.243Z,77.44
2019-05-25T04:27:50.032Z,77.36
2019-05-25T04:28:55.243Z,77.46
2019-05-25T04:29:59.661Z,77.68
2019-05-25T04:31:04.655Z,77.39
2019-05-25T04:32:09.116Z,77.33
2019-05-25T04:33:14.183Z,77.41
2019-05-25T04:34:18.609Z,77.12
2019-05-25T04:35:23.628Z,77.06
2019-05-25T04:36:28.185Z,76.77
2019-05-25T04:37:33.256Z,76.57
2019-05-25T04:38:37.720Z,76.54
2019-05-25T04:39:42.762Z,76.73
2019-05-25T04:40:47.186Z,76.14
2019-05-25T04:41:52.173Z,76.62
2019-05-25T04:42:56.610Z,76.52
2019-05-25T04:44:01.656Z,75.98
2019-05-25T04:45:07.561Z,75.67
2019-05-25T04:46:12.564Z,74.97
2019-05-25T04:47:26.609Z,75.82
2019-05-25T04:48:23.740Z,74.81
2019-05-25T04:49:28.155Z,74.80
2019-05-25T04:50:33.612Z,74.50
2019-05-25T04:51:38.039Z,73.60
2019-05-25T04:52:43.160Z,73.84
2019-05-25T04:53:47.591Z,73.11
2019-05-25T04:54:52.651Z,73.76
2019-05-25T04:55:57.342Z,73.86
2019-05-25T04:57:02.493Z,72.09
2019-05-25T04:58:07.033Z,71.68
2019-05-25T04:59:12.370Z,71.20
2019-05-25T05:00:16.920Z,71.81
2019-05-25T05:01:22.726Z,71.91
2019-05-25T05:02:27.205Z,72.39
2019-05-25T05:03:32.223Z,72.38
2019-05-25T05:04:36.634Z,72.36
2019-05-25T05:05:41.998Z,72.73
2019-05-25T05:06:46.459Z,72.58
2019-05-25T05:07:51.495Z,72.50
2019-05-25T05:08:56.065Z,73.44
2019-05-25T05:10:03.007Z,72.84
2019-05-25T05:11:07.323Z,72.26
2019-05-25T05:12:12.324Z,72.28
2019-05-25T05:13:16.736Z,72.49
2019-05-25T05:14:21.757Z,72.33
2019-05-25T05:15:26.238Z,72.62
2019-05-25T05:16:31.236Z,72.32
2019-05-25T05:17:35.661Z,72.32
2019-05-25T05:18:40.673Z,72.72
2019-05-25T05:19:45.078Z,72.24
2019-05-25T05:20:50.080Z,71.92
2019-05-25T05:21:54.492Z,71.88
2019-05-25T05:22:59.495Z,72.20
2019-05-25T05:24:03.997Z,71.79
2019-05-25T05:25:10.104Z,72.53
2019-05-25T05:26:15.076Z,71.45
2019-05-25T05:27:20.482Z,71.83
2019-05-25T05:28:25.264Z,71.28
2019-05-25T05:29:30.289Z,71.24
2019-05-25T05:30:35.337Z,71.72
2019-05-25T05:31:40.881Z,71.46
2019-05-25T05:32:45.293Z,71.10
2019-05-25T05:33:50.455Z,71.41
2019-05-25T05:34:55.008Z,71.98
2019-05-25T05:36:01.053Z,71.20
2019-05-25T05:37:05.709Z,70.93
2019-05-25T05:38:11.064Z,71.29
2019-05-25T05:39:15.556Z,71.09
2019-05-25T05:40:20.689Z,71.04
2019-05-25T05:41:27.117Z,69.80
2019-05-25T05:42:33.527Z,68.83
2019-05-25T05:43:39.679Z,69.06
2019-05-25T05:44:46.297Z,68.68
2019-05-25T05:45:53.354Z,68.34
2019-05-25T05:47:00.417Z,68.39
2019-05-25T05:48:04.935Z,68.47
2019-05-25T05:49:11.570Z,68.16
2019-05-25T05:50:16.509Z,68.26
2019-05-25T05:51:21.724Z,68.29
2019-05-25T05:52:29.228Z,67.10
2019-05-25T05:53:36.950Z,68.42
2019-05-25T05:54:44.426Z,67.85
2019-05-25T05:55:49.440Z,67.82
2019-05-25T05:56:54.136Z,66.48
2019-05-25T05:57:59.139Z,67.74
2019-05-25T05:59:03.649Z,66.03
2019-05-25T06:00:10.286Z,65.96
2019-05-25T06:01:14.695Z,66.58
2019-05-25T06:02:19.696Z,67.32
2019-05-25T06:03:24.111Z,66.01
2019-05-25T06:04:30.535Z,66.00
2019-05-25T06:05:35.089Z,64.76
2019-05-25T06:06:40.129Z,64.34
2019-05-25T06:07:44.859Z,64.76
2019-05-25T06:08:49.862Z,64.79
2019-05-25T06:09:54.292Z,64.68
2019-05-25T06:10:59.290Z,63.68
2019-05-25T06:12:04.004Z,64.55
2019-05-25T06:13:09.405Z,64.53
2019-05-25T06:14:13.845Z,63.59
2019-05-25T06:15:19.185Z,62.32
2019-05-25T06:16:23.601Z,62.90
2019-05-25T06:17:28.666Z,62.72
2019-05-25T06:18:33.098Z,62.66
2019-05-25T06:19:38.206Z,62.46
2019-05-25T06:20:42.626Z,63.69
2019-05-25T06:21:47.698Z,64.03
2019-05-25T06:22:52.248Z,64.37
2019-05-25T06:23:57.296Z,64.74
2019-05-25T06:25:02.014Z,63.60
2019-05-25T06:26:07.142Z,62.88
2019-05-25T06:27:26.326Z,61.36
2019-05-25T06:28:22.424Z,60.57
2019-05-25T06:29:25.924Z,59.67
2019-05-25T06:30:31.060Z,59.48
2019-05-25T06:31:35.483Z,59.71
2019-05-25T06:32:40.478Z,59.51
2019-05-25T06:33:45.967Z,58.90
2019-05-25T06:34:50.997Z,58.74
2019-05-25T06:35:55.562Z,60.08
2019-05-25T06:37:00.569Z,59.53
2019-05-25T06:38:05.089Z,60.74
2019-05-25T06:39:10.050Z,59.66
2019-05-25T06:40:15.921Z,58.81
2019-05-25T06:41:20.998Z,59.89
2019-05-25T06:42:25.502Z,57.63
2019-05-25T06:43:30.838Z,58.21
2019-05-25T06:44:35.355Z,58.02
2019-05-25T06:45:40.765Z,58.38
2019-05-25T06:46:45.185Z,57.32
2019-05-25T06:47:50.239Z,57.34
2019-05-25T06:48:54.827Z,56.90
2019-05-25T06:49:59.840Z,58.00
2019-05-25T06:51:04.519Z,58.61
2019-05-25T06:52:09.599Z,58.11
2019-05-25T06:53:14.087Z,57.85
2019-05-25T06:54:19.230Z,58.27
2019-05-25T06:55:23.741Z,58.12
2019-05-25T06:56:28.738Z,58.86
2019-05-25T06:57:42.483Z,59.21
2019-05-25T06:58:40.353Z,58.78
2019-05-25T06:59:45.094Z,59.53
2019-05-25T07:00:50.168Z,60.66
2019-05-25T07:01:54.592Z,61.22
2019-05-25T07:02:59.598Z,60.72
2019-05-25T07:04:04.353Z,60.41
2019-05-25T07:05:10.811Z,59.35
2019-05-25T07:06:15.295Z,59.35
2019-05-25T07:07:20.309Z,59.97
2019-05-25T07:08:24.725Z,60.53
2019-05-25T07:09:29.788Z,60.22
2019-05-25T07:10:34.219Z,59.83
2019-05-25T07:11:39.245Z,61.81
2019-05-25T07:12:43.652Z,59.92
2019-05-25T07:13:48.737Z,60.17
2019-05-25T07:14:53.273Z,60.17
2019-05-25T07:15:58.291Z,59.66
2019-05-25T07:17:02.985Z,60.75
2019-05-25T07:18:08.061Z,60.33
2019-05-25T07:19:12.624Z,59.65
2019-05-25T07:20:17.982Z,59.44
2019-05-25T07:21:22.463Z,60.37
2019-05-25T07:22:27.484Z,60.07
2019-05-25T07:23:31.880Z,59.94
2019-05-25T07:24:36.944Z,59.31
2019-05-25T07:25:41.444Z,58.73
2019-05-25T07:26:46.508Z,58.52
2019-05-25T07:27:59.894Z,58.21
2019-05-25T07:28:57.621Z,58.35
2019-05-25T07:30:02.038Z,58.29
2019-05-25T07:31:07.193Z,58.97
2019-05-25T07:32:11.604Z,59.10
2019-05-25T07:33:16.746Z,57.21
2019-05-25T07:34:21.558Z,58.41
2019-05-25T07:35:26.745Z,57.98
2019-05-25T07:36:31.162Z,56.78
2019-05-25T07:37:36.241Z,57.23
2019-05-25T07:38:40.653Z,58.14
2019-05-25T07:39:45.725Z,59.34
2019-05-25T07:40:50.155Z,58.95
2019-05-25T07:41:55.241Z,59.26
2019-05-25T07:42:59.662Z,60.69
2019-05-25T07:44:04.737Z,60.04
2019-05-25T07:45:09.961Z,59.34
2019-05-25T07:46:17.246Z,59.38
2019-05-25T07:47:21.360Z,59.27
2019-05-25T07:48:26.777Z,58.69
2019-05-25T07:49:31.531Z,58.01
2019-05-25T07:50:36.572Z,58.28
2019-05-25T07:51:40.990Z,58.43
2019-05-25T07:52:46.071Z,58.15
2019-05-25T07:53:50.470Z,58.22
2019-05-25T07:54:55.803Z,59.23
2019-05-25T07:56:00.549Z,59.64
2019-05-25T07:57:05.807Z,60.30
2019-05-25T07:58:17.590Z,61.75
2019-05-25T07:59:17.348Z,62.83
2019-05-25T08:00:22.301Z,60.98
2019-05-25T08:01:27.614Z,61.30
2019-05-25T08:02:32.308Z,60.71
2019-05-25T08:03:39.727Z,60.81
2019-05-25T08:04:43.491Z,60.99
2019-05-25T08:05:48.584Z,61.75
2019-05-25T08:06:52.990Z,60.42
2019-05-25T08:07:58.300Z,61.00
2019-05-25T08:09:03.094Z,60.12
2019-05-25T08:10:08.599Z,60.34
2019-05-25T08:11:13.033Z,60.70
2019-05-25T08:12:18.105Z,59.94
2019-05-25T08:13:22.616Z,60.55
2019-05-25T08:14:27.615Z,61.61
2019-05-25T08:15:32.296Z,61.22
2019-05-25T08:16:37.318Z,59.61
2019-05-25T08:17:41.877Z,60.06
2019-05-25T08:18:47.144Z,59.67
2019-05-25T08:19:51.556Z,61.44
2019-05-25T08:20:56.986Z,60.41
2019-05-25T08:22:02.045Z,62.17
2019-05-25T08:23:07.518Z,61.63
2019-05-25T08:24:12.492Z,61.82
2019-05-25T08:25:18.564Z,62.19
2019-05-25T08:26:23.495Z,63.42
2019-05-25T08:27:29.954Z,62.37
2019-05-25T08:28:35.210Z,61.73
2019-05-25T08:29:40.669Z,60.73
2019-05-25T08:30:45.593Z,60.40
2019-05-25T08:31:51.147Z,60.97
2019-05-25T08:32:56.277Z,59.96
2019-05-25T08:34:01.743Z,61.29
2019-05-25T08:35:08.232Z,60.50
2019-05-25T08:36:13.749Z,60.99
2019-05-25T08:37:18.636Z,60.65
2019-05-25T08:38:24.105Z,59.87
2019-05-25T08:39:28.982Z,60.00
2019-05-25T08:40:34.448Z,60.27
2019-05-25T08:41:39.470Z,60.71
2019-05-25T08:42:45.306Z,60.68
2019-05-25T08:43:50.165Z,61.56
2019-05-25T08:44:55.978Z,61.30
2019-05-25T08:46:00.848Z,62.19
2019-05-25T08:47:06.356Z,61.84
2019-05-25T08:48:11.233Z,61.65
2019-05-25T08:49:17.049Z,62.25
2019-05-25T08:51:31.525Z,62.65
2019-05-25T08:52:36.992Z,62.69
2019-05-25T08:53:42.433Z,63.47
2019-05-25T08:54:48.914Z,64.28
2019-05-25T08:55:53.780Z,64.22
2019-05-25T08:56:59.289Z,64.14
2019-05-25T08:58:04.156Z,64.15
2019-05-25T08:59:09.624Z,63.99
2019-05-25T09:00:15.211Z,65.75
2019-05-25T09:01:20.723Z,65.34
2019-05-25T09:02:25.590Z,64.17
2019-05-25T09:03:31.049Z,64.17
2019-05-25T09:04:36.285Z,63.66
2019-05-25T09:05:42.846Z,63.99
2019-05-25T09:06:47.755Z,63.44
2019-05-25T09:07:53.201Z,63.84
2019-05-25T09:08:58.430Z,63.09
2019-05-25T09:10:04.682Z,63.61
2019-05-25T09:11:10.098Z,62.20
2019-05-25T09:12:15.610Z,61.19
2019-05-25T09:13:20.865Z,60.96
2019-05-25T09:14:26.326Z,61.12
2019-05-25T09:15:31.665Z,61.58
2019-05-25T09:16:37.517Z,61.08
2019-05-25T09:17:42.405Z,61.38
2019-05-25T09:18:47.876Z,60.97
2019-05-25T09:19:53.158Z,60.06
2019-05-25T09:20:58.617Z,59.89
2019-05-25T09:22:04.073Z,59.22
2019-05-25T09:23:10.024Z,58.76
2019-05-25T09:24:14.942Z,57.93
2019-05-25T09:25:20.393Z,57.89
2019-05-25T09:26:25.256Z,59.00
2019-05-25T09:27:30.753Z,57.87
2019-05-25T09:28:35.972Z,58.90
2019-05-25T09:29:41.773Z,58.43
2019-05-25T09:30:46.653Z,56.65
2019-05-25T09:31:52.157Z,56.58
2019-05-25T09:32:57.384Z,57.29
2019-05-25T09:34:03.169Z,55.80
2019-05-25T09:35:08.736Z,56.45
2019-05-25T09:36:14.174Z,56.29
2019-05-25T09:37:19.211Z,56.12
2019-05-25T09:38:24.892Z,56.00
2019-05-25T09:39:29.755Z,55.80
2019-05-25T09:40:35.212Z,56.35
2019-05-25T09:41:40.052Z,56.98
2019-05-25T09:42:46.574Z,55.32
2019-05-25T09:43:51.492Z,55.98
2019-05-25T09:44:57.286Z,55.64
2019-05-25T09:46:03.337Z,54.40
2019-05-25T09:47:09.904Z,54.07
2019-05-25T09:48:14.758Z,54.22
2019-05-25T09:49:20.207Z,53.29
2019-05-25T09:50:25.160Z,53.55
2019-05-25T09:51:30.628Z,54.40
2019-05-25T09:52:35.631Z,53.14
2019-05-25T09:53:41.052Z,53.91
2019-05-25T09:54:45.929Z,52.88
2019-05-25T09:55:51.712Z,52.56
2019-05-25T09:56:56.610Z,51.50
2019-05-25T09:58:02.105Z,52.27
2019-05-25T09:59:19.322Z,53.47
2019-05-25T10:00:16.217Z,54.30
2019-05-25T10:01:21.274Z,54.63
2019-05-25T10:02:27.111Z,56.15
2019-05-25T10:03:31.970Z,54.01
2019-05-25T10:04:37.755Z,55.09
2019-05-25T10:05:42.941Z,54.47
2019-05-25T10:06:48.376Z,55.32
2019-05-25T10:07:53.603Z,56.66
2019-05-25T10:08:59.043Z,56.84
2019-05-25T10:10:05.104Z,56.98
2019-05-25T10:11:10.919Z,56.30
2019-05-25T10:12:16.459Z,56.56
2019-05-25T10:13:22.333Z,56.57
2019-05-25T10:14:27.190Z,56.24
2019-05-25T10:15:33.025Z,54.40
2019-05-25T10:16:38.245Z,54.99
2019-05-25T10:17:43.755Z,54.57
2019-05-25T10:18:49.027Z,55.13
2019-05-25T10:19:54.894Z,56.42
2019-05-25T10:20:59.815Z,55.97
2019-05-25T10:22:06.632Z,57.33
2019-05-25T10:23:11.514Z,56.49
2019-05-25T10:24:16.948Z,57.26
2019-05-25T10:25:21.803Z,54.71
2019-05-25T10:26:28.883Z,53.98
2019-05-25T10:27:34.415Z,54.24
2019-05-25T10:28:39.945Z,54.11
2019-05-25T10:29:44.797Z,54.40
2019-05-25T10:30:50.250Z,54.33
2019-05-25T10:31:56.174Z,55.30
2019-05-25T10:33:10.347Z,53.95
2019-05-25T10:34:15.618Z,53.95
2019-05-25T10:35:21.837Z,54.15
2019-05-25T10:36:26.971Z,53.90
2019-05-25T10:37:33.031Z,53.87
2019-05-25T10:38:38.792Z,54.29
2019-05-25T10:39:44.983Z,55.55
2019-05-25T10:40:49.883Z,55.30
2019-05-25T10:41:55.818Z,55.58
2019-05-25T10:43:01.402Z,55.50
2019-05-25T10:44:07.137Z,54.97
2019-05-25T10:45:14.671Z,55.02
2019-05-25T10:46:21.228Z,54.75
2019-05-25T10:47:26.581Z,55.35
2019-05-25T10:48:32.218Z,54.57
2019-05-25T10:49:37.212Z,53.81
2019-05-25T10:50:44.431Z,54.20
2019-05-25T10:51:49.489Z,54.35
2019-05-25T10:52:55.707Z,54.05
2019-05-25T10:54:01.345Z,54.81
2019-05-25T10:55:11.733Z,54.11
2019-05-25T10:56:17.013Z,53.59
2019-05-25T10:57:23.039Z,53.50
2019-05-25T10:58:28.203Z,53.03
2019-05-25T10:59:34.506Z,52.12
2019-05-25T11:00:39.853Z,52.63
2019-05-25T11:01:45.457Z,53.19
2019-05-25T11:02:50.554Z,53.64
2019-05-25T11:03:56.285Z,54.69
2019-05-25T11:05:01.912Z,54.63
2019-05-25T11:06:07.790Z,53.46
2019-05-25T11:07:12.988Z,53.82
2019-05-25T11:08:18.814Z,54.98
2019-05-25T11:09:23.972Z,55.10
2019-05-25T11:10:29.825Z,56.42
2019-05-25T11:11:35.340Z,55.75
2019-05-25T11:12:41.054Z,55.48
2019-05-25T11:13:48.180Z,56.08
2019-05-25T11:14:54.132Z,55.43
2019-05-25T11:15:59.376Z,54.98
2019-05-25T11:17:05.730Z,54.88
2019-05-25T11:18:11.029Z,55.49
2019-05-25T11:19:17.318Z,56.12
2019-05-25T11:20:23.188Z,54.71
2019-05-25T11:21:29.307Z,54.02
2019-05-25T11:22:34.518Z,54.32
2019-05-25T11:23:40.477Z,53.55
2019-05-25T11:24:45.604Z,54.41
2019-05-25T11:25:52.534Z,54.74
2019-05-25T11:26:59.736Z,55.16
2019-05-25T11:28:08.333Z,53.85
2019-05-25T11:29:13.654Z,55.92
2019-05-25T11:30:21.290Z,54.90
2019-05-25T11:31:26.752Z,53.65
2019-05-25T11:32:32.638Z,54.33
2019-05-25T11:33:38.385Z,54.94
2019-05-25T11:34:44.148Z,54.75
2019-05-25T11:35:49.525Z,54.55
2019-05-25T11:36:55.452Z,53.17
2019-05-25T11:38:01.062Z,52.51
2019-05-25T11:39:08.235Z,52.36
2019-05-25T11:40:13.537Z,53.43
2019-05-25T11:41:19.433Z,52.32
2019-05-25T11:42:24.679Z,52.65
2019-05-25T11:43:30.995Z,53.28
2019-05-25T11:44:36.379Z,52.23
2019-05-25T11:45:45.242Z,53.34
2019-05-25T11:46:49.354Z,53.36
2019-05-25T11:47:54.559Z,51.32
2019-05-25T11:48:59.015Z,52.19
2019-05-25T11:50:06.031Z,52.96
2019-05-25T11:51:10.452Z,52.87
2019-05-25T11:52:15.446Z,54.02
2019-05-25T11:53:19.935Z,52.60
2019-05-25T11:54:24.952Z,54.13
2019-05-25T11:55:29.366Z,55.59
2019-05-25T11:56:34.376Z,54.07
2019-05-25T11:57:38.791Z,52.47
2019-05-25T11:58:47.392Z,53.33
2019-05-25T11:59:50.033Z,53.74
2019-05-25T12:00:55.413Z,54.21
2019-05-25T12:02:00.831Z,53.67
2019-05-25T12:03:05.941Z,54.71
2019-05-25T12:04:10.469Z,54.74
2019-05-25T12:05:16.008Z,54.74
2019-05-25T12:06:20.490Z,55.49
2019-05-25T12:07:25.491Z,55.30
2019-05-25T12:08:30.287Z,54.14
2019-05-25T12:09:35.313Z,55.16
2019-05-25T12:10:39.800Z,53.73
2019-05-25T12:11:45.195Z,53.97
2019-05-25T12:12:49.685Z,54.38
2019-05-25T12:13:54.704Z,54.95
2019-05-25T12:14:59.112Z,53.67
2019-05-25T12:16:04.641Z,54.85
2019-05-25T12:17:09.214Z,55.22
2019-05-25T12:18:14.204Z,55.96
2019-05-25T12:19:18.637Z,57.27
2019-05-25T12:20:23.724Z,56.90
2019-05-25T12:21:29.116Z,56.32
2019-05-25T12:22:34.185Z,56.32
2019-05-25T12:23:38.669Z,55.01
2019-05-25T12:24:43.697Z,56.68
2019-05-25T12:25:48.103Z,56.02
2019-05-25T12:26:53.106Z,56.07
2019-05-25T12:27:57.587Z,53.88
2019-05-25T12:29:02.608Z,54.06
2019-05-25T12:30:08.163Z,55.25
2019-05-25T12:31:13.163Z,54.29
2019-05-25T12:32:18.017Z,52.53
2019-05-25T12:33:23.095Z,53.27
2019-05-25T12:34:28.591Z,53.60
2019-05-25T12:35:33.611Z,53.62
2019-05-25T12:36:38.036Z,54.53
2019-05-25T12:37:44.382Z,55.71
2019-05-25T12:38:48.803Z,53.66
2019-05-25T12:39:53.906Z,54.26
2019-05-25T12:40:58.316Z,55.22
2019-05-25T12:42:03.695Z,54.15
2019-05-25T12:43:08.179Z,52.87
2019-05-25T12:44:13.217Z,53.72
2019-05-25T12:45:17.893Z,53.43
2019-05-25T12:46:23.044Z,53.76
2019-05-25T12:47:27.486Z,52.83
2019-05-25T12:48:32.490Z,52.79
2019-05-25T12:49:50.270Z,52.93
2019-05-25T12:50:43.800Z,52.79
2019-05-25T12:51:48.222Z,52.25
2019-05-25T12:52:53.227Z,52.34
2019-05-25T12:53:57.932Z,52.06
2019-05-25T12:55:03.019Z,51.06
2019-05-25T12:56:07.428Z,52.67
2019-05-25T12:57:12.450Z,51.60
2019-05-25T12:58:17.231Z,53.78
2019-05-25T12:59:22.312Z,51.65
2019-05-25T13:00:26.787Z,52.78
2019-05-25T13:01:31.786Z,51.87
2019-05-25T13:02:36.473Z,51.72
2019-05-25T13:03:41.527Z,52.28
2019-05-25T13:04:45.959Z,51.19
2019-05-25T13:05:50.956Z,50.39
2019-05-25T13:06:55.713Z,52.05
2019-05-25T13:08:00.708Z,52.21
2019-05-25T13:09:07.705Z,53.72
2019-05-25T13:10:13.462Z,52.21
2019-05-25T13:11:17.882Z,52.24
2019-05-25T13:12:22.959Z,51.00
2019-05-25T13:13:27.642Z,51.13
2019-05-25T13:14:32.700Z,50.62
2019-05-25T13:15:37.073Z,49.68
2019-05-25T13:16:43.382Z,50.11
2019-05-25T13:17:47.798Z,51.90
2019-05-25T13:18:52.940Z,51.73
2019-05-25T13:19:57.367Z,51.45
2019-05-25T13:21:02.368Z,52.26
2019-05-25T13:22:07.127Z,52.46
2019-05-25T13:23:13.099Z,53.73
2019-05-25T13:24:17.508Z,53.92
2019-05-25T13:25:22.525Z,54.19
2019-05-25T13:26:28.312Z,53.66
2019-05-25T13:27:33.275Z,53.37
2019-05-25T13:28:37.691Z,52.67
2019-05-25T13:29:42.764Z,54.67
2019-05-25T13:30:47.541Z,56.06
2019-05-25T13:31:52.873Z,53.71
2019-05-25T13:32:57.287Z,54.65
2019-05-25T13:34:02.328Z,53.66
2019-05-25T13:35:08.916Z,54.30
2019-05-25T13:36:14.309Z,54.41
2019-05-25T13:37:18.725Z,55.33
2019-05-25T13:38:23.769Z,56.31
2019-05-25T13:39:28.185Z,55.29
2019-05-25T13:40:33.209Z,54.47
2019-05-25T13:41:37.629Z,54.75
2019-05-25T13:42:42.630Z,54.84
2019-05-25T13:43:50.002Z,54.37
2019-05-25T13:44:53.769Z,55.01
2019-05-25T13:45:59.307Z,53.57
2019-05-25T13:47:04.578Z,54.04
2019-05-25T13:48:09.000Z,53.10
2019-05-25T13:49:13.996Z,52.50
2019-05-25T13:50:18.568Z,50.83
2019-05-25T13:51:23.566Z,52.58
2019-05-25T13:52:27.988Z,50.84
2019-05-25T13:53:33.264Z,52.54
2019-05-25T13:54:37.748Z,51.01
2019-05-25T13:55:42.769Z,52.65
2019-05-25T13:56:47.191Z,53.19
2019-05-25T13:57:52.188Z,53.62
2019-05-25T13:58:56.598Z,54.92
2019-05-25T14:00:02.251Z,53.89